createdAt,value
2019-02-23T00:02:10.725Z,8.80
2019-02-23T00:04:39.119Z,9.40
2019-02-23T00:07:07.469Z,8.67
2019-02-23T00:09:35.731Z,8.60
2019-02-23T00:12:04.737Z,9.73
2019-02-23T00:14:33.075Z,9.73
2019-02-23T00:17:01.349Z,9.60
2019-02-23T00:19:29.635Z,9.67
2019-02-23T00:21:57.895Z,9.90
2019-02-23T00:24:26.189Z,10.20
2019-02-23T00:26:54.455Z,9.70
2019-02-23T00:29:22.761Z,11.13
2019-02-23T00:31:51.066Z,9.23
2019-02-23T00:34:19.335Z,10.33
2019-02-23T00:36:47.614Z,10.90
2019-02-23T00:39:15.894Z,11.03
2019-02-23T00:41:44.273Z,12.00
2019-02-23T00:44:12.588Z,21.77
2019-02-23T00:46:40.862Z,10.70
2019-02-23T00:49:09.136Z,12.00
2019-02-23T00:51:37.415Z,10.40
2019-02-23T00:54:05.720Z,10.90
2019-02-23T00:56:34.022Z,11.07
2019-02-23T00:59:02.285Z,11.07
2019-02-23T01:01:30.572Z,11.73
2019-02-23T01:03:58.870Z,11.30
2019-02-23T01:06:27.169Z,11.93
2019-02-23T01:08:55.447Z,12.30
2019-02-23T01:11:23.736Z,11.63
2019-02-23T01:13:52.009Z,13.07
2019-02-23T01:16:20.351Z,11.70
2019-02-23T01:18:48.750Z,11.97
2019-02-23T01:21:17.016Z,12.07
2019-02-23T01:23:45.299Z,11.67
2019-02-23T01:26:13.598Z,11.77
2019-02-23T01:28:41.878Z,13.30
2019-02-23T01:31:10.168Z,13.00
2019-02-23T01:33:38.450Z,12.23
2019-02-23T01:36:06.757Z,12.90
2019-02-23T01:38:35.042Z,12.10
2019-02-23T01:41:03.329Z,13.27
2019-02-23T01:43:31.592Z,12.50
2019-02-23T01:45:59.935Z,12.03
2019-02-23T01:48:28.269Z,12.57
2019-02-23T01:50:56.551Z,20.87
2019-02-23T01:53:24.842Z,14.10
2019-02-23T01:55:53.134Z,13.70
2019-02-23T01:58:21.498Z,13.90
2019-02-23T02:00:49.763Z,15.53
2019-02-23T02:03:18.051Z,13.90
2019-02-23T02:05:46.316Z,13.90
2019-02-23T02:08:14.678Z,15.73
2019-02-23T02:10:43.058Z,14.10
2019-02-23T02:13:11.334Z,13.47
2019-02-23T02:15:39.888Z,12.63
2019-02-23T02:18:08.172Z,13.80
2019-02-23T02:20:36.492Z,14.40
2019-02-23T02:23:04.895Z,14.07
2019-02-23T02:25:33.186Z,15.03
2019-02-23T02:28:01.460Z,13.63
2019-02-23T02:30:29.741Z,14.63
2019-02-23T02:32:58.031Z,13.13
2019-02-23T02:35:26.295Z,12.87
2019-02-23T02:37:54.707Z,13.23
2019-02-23T02:40:23.086Z,16.20
2019-02-23T02:42:51.329Z,15.50
2019-02-23T02:45:19.616Z,13.50
2019-02-23T02:47:47.904Z,13.77
2019-02-23T02:50:24.367Z,12.57
2019-02-23T02:52:46.216Z,14.73
2019-02-23T02:55:14.518Z,11.70
2019-02-23T02:57:42.817Z,12.87
2019-02-23T03:00:12.642Z,14.43
2019-02-23T03:02:41.010Z,13.90
2019-02-23T03:05:09.842Z,12.57
2019-02-23T03:07:38.129Z,12.20
2019-02-23T03:10:06.569Z,12.57
2019-02-23T03:12:34.850Z,14.40
2019-02-23T03:15:03.144Z,12.43
2019-02-23T03:17:31.455Z,16.33
2019-02-23T03:19:59.746Z,12.80
2019-02-23T03:22:28.021Z,13.10
2019-02-23T03:24:56.281Z,14.57
2019-02-23T03:27:24.609Z,12.90
2019-02-23T03:29:52.883Z,12.43
2019-02-23T03:32:21.172Z,13.03
2019-02-23T03:34:49.443Z,12.77
2019-02-23T03:37:17.715Z,13.40
2019-02-23T03:39:45.994Z,13.20
2019-02-23T03:42:14.376Z,13.57
2019-02-23T03:44:42.666Z,13.90
2019-02-23T03:47:10.938Z,14.23
2019-02-23T03:49:39.240Z,13.87
2019-02-23T03:52:07.518Z,13.47
2019-02-23T03:54:35.809Z,14.90
2019-02-23T03:57:04.293Z,14.17
2019-02-23T03:59:32.626Z,14.00
2019-02-23T04:02:00.939Z,15.40
2019-02-23T04:04:29.206Z,14.27
2019-02-23T04:06:57.502Z,15.20
2019-02-23T04:09:25.804Z,18.00
2019-02-23T04:11:54.073Z,14.97
2019-02-23T04:14:22.375Z,16.00
2019-02-23T04:16:50.690Z,14.23
2019-02-23T04:19:18.966Z,16.47
2019-02-23T04:21:47.250Z,14.00
2019-02-23T04:24:15.543Z,15.30
2019-02-23T04:26:43.824Z,16.83
2019-02-23T04:29:12.117Z,13.67
2019-02-23T04:31:40.431Z,15.13
2019-02-23T04:34:08.699Z,16.27
2019-02-23T04:36:36.987Z,17.40
2019-02-23T04:39:06.146Z,16.57
2019-02-23T04:41:34.422Z,14.60
2019-02-23T04:44:02.695Z,16.93
2019-02-23T04:46:31.024Z,17.13
2019-02-23T04:48:59.303Z,15.93
2019-02-23T04:51:27.669Z,17.23
2019-02-23T04:53:55.967Z,16.90
2019-02-23T04:56:24.248Z,16.63
2019-02-23T04:58:52.591Z,17.57
2019-02-23T05:01:20.880Z,18.33
2019-02-23T05:03:49.228Z,16.27
2019-02-23T05:06:17.511Z,16.60
2019-02-23T05:08:45.781Z,15.70
2019-02-23T05:11:14.068Z,16.00
2019-02-23T05:13:42.337Z,18.47
2019-02-23T05:16:10.639Z,17.47
2019-02-23T05:18:38.903Z,17.30
2019-02-23T05:21:07.216Z,19.93
2019-02-23T05:23:35.496Z,18.20
2019-02-23T05:26:03.759Z,17.90
2019-02-23T05:28:32.055Z,19.53
2019-02-23T05:31:00.325Z,19.13
2019-02-23T05:33:28.622Z,17.40
2019-02-23T05:35:56.919Z,19.47
2019-02-23T05:38:25.203Z,17.70
2019-02-23T05:40:53.498Z,17.17
2019-02-23T05:43:21.783Z,19.80
2019-02-23T05:45:50.082Z,18.30
2019-02-23T05:48:19.607Z,16.60
2019-02-23T05:50:48.053Z,17.63
2019-02-23T05:53:16.357Z,17.40
2019-02-23T05:55:44.641Z,17.17
2019-02-23T05:58:12.919Z,18.43
2019-02-23T06:00:41.207Z,19.07
2019-02-23T06:03:09.494Z,17.70
2019-02-23T06:05:37.759Z,17.87
2019-02-23T06:08:06.036Z,17.00
2019-02-23T06:10:34.341Z,17.93
2019-02-23T06:13:02.601Z,18.43
2019-02-23T06:15:30.894Z,19.47
2019-02-23T06:17:59.201Z,16.67
2019-02-23T06:20:27.487Z,21.40
2019-02-23T06:22:55.762Z,17.43
2019-02-23T06:25:24.033Z,18.00
2019-02-23T06:27:52.418Z,21.37
2019-02-23T06:30:21.013Z,17.13
2019-02-23T06:32:49.291Z,18.07
2019-02-23T06:35:17.570Z,19.00
2019-02-23T06:37:45.869Z,19.10
2019-02-23T06:40:14.141Z,19.30
2019-02-23T06:42:42.426Z,18.87
2019-02-23T06:45:12.594Z,19.00
2019-02-23T06:47:40.955Z,18.60
2019-02-23T06:50:09.322Z,18.13
2019-02-23T06:52:37.653Z,17.63
2019-02-23T06:55:07.204Z,20.03
2019-02-23T06:57:35.464Z,18.40
2019-02-23T07:00:05.828Z,18.10
2019-02-23T07:02:34.142Z,18.70
2019-02-23T07:05:02.434Z,17.37
2019-02-23T07:07:30.720Z,19.27
2019-02-23T07:09:58.991Z,18.20
2019-02-23T07:12:27.257Z,17.57
2019-02-23T07:14:55.561Z,18.80
2019-02-23T07:17:26.775Z,17.57
2019-02-23T07:19:55.072Z,17.07
2019-02-23T07:22:23.383Z,18.00
2019-02-23T07:24:51.678Z,23.07
2019-02-23T07:27:19.965Z,17.70
2019-02-23T07:29:48.235Z,17.87
2019-02-23T07:32:16.522Z,19.23
2019-02-23T07:34:44.793Z,17.97
2019-02-23T07:37:13.079Z,21.20
2019-02-23T07:39:41.359Z,19.43
2019-02-23T07:42:09.639Z,20.20
2019-02-23T07:44:37.926Z,19.10
2019-02-23T07:47:06.203Z,18.77
2019-02-23T07:49:34.471Z,18.73
2019-02-23T07:52:02.825Z,18.37
2019-02-23T07:54:31.092Z,21.80
2019-02-23T07:56:59.374Z,22.70
2019-02-23T07:59:27.669Z,21.17
2019-02-23T08:01:55.966Z,18.30
2019-02-23T08:04:24.229Z,18.20
2019-02-23T08:06:52.504Z,20.27
2019-02-23T08:09:20.840Z,17.30
2019-02-23T08:11:49.110Z,17.70
2019-02-23T08:14:17.392Z,18.77
2019-02-23T08:16:45.679Z,21.60
2019-02-23T08:19:13.966Z,17.93
2019-02-23T08:21:42.269Z,17.20
2019-02-23T08:24:10.560Z,18.10
2019-02-23T08:26:38.837Z,18.13
2019-02-23T08:29:07.140Z,19.80
2019-02-23T08:31:35.501Z,19.03
2019-02-23T08:34:03.784Z,16.90
2019-02-23T08:36:32.042Z,18.50
2019-02-23T08:39:00.390Z,19.60
2019-02-23T08:41:28.857Z,18.33
2019-02-23T08:43:57.134Z,17.40
2019-02-23T08:46:25.410Z,17.53
2019-02-23T08:48:53.707Z,18.27
2019-02-23T08:51:21.971Z,17.53
2019-02-23T08:53:50.270Z,15.70
2019-02-23T08:56:18.553Z,17.13
2019-02-23T08:58:47.057Z,18.47
2019-02-23T09:01:15.505Z,18.83
2019-02-23T09:03:43.796Z,16.53
2019-02-23T09:06:12.078Z,18.83
2019-02-23T09:08:40.424Z,16.73
2019-02-23T09:11:08.715Z,15.93
2019-02-23T09:13:37.068Z,15.60
2019-02-23T09:16:05.376Z,18.70
2019-02-23T09:18:33.656Z,16.83
2019-02-23T09:21:07.134Z,16.97
2019-02-23T09:23:35.410Z,17.13
2019-02-23T09:26:03.722Z,17.80
2019-02-23T09:28:32.039Z,17.17
2019-02-23T09:31:00.327Z,17.60
2019-02-23T09:33:28.623Z,16.50
2019-02-23T09:35:56.972Z,15.67
2019-02-23T09:38:25.259Z,16.00
2019-02-23T09:40:53.528Z,16.00
2019-02-23T09:43:21.829Z,16.07
2019-02-23T09:45:50.139Z,17.60
2019-02-23T09:48:18.494Z,17.73
2019-02-23T09:50:46.815Z,16.80
2019-02-23T09:53:15.095Z,15.40
2019-02-23T09:55:43.410Z,16.77
2019-02-23T09:58:11.692Z,16.70
2019-02-23T10:00:39.998Z,15.07
2019-02-23T10:03:08.371Z,16.17
2019-02-23T10:05:38.184Z,16.93
2019-02-23T10:08:06.652Z,16.57
2019-02-23T10:10:34.956Z,16.20
2019-02-23T10:13:03.230Z,16.57
2019-02-23T10:15:31.534Z,15.97
2019-02-23T10:17:59.820Z,16.70
2019-02-23T10:20:28.131Z,16.43
2019-02-23T10:22:56.419Z,15.97
2019-02-23T10:25:24.691Z,15.10
2019-02-23T10:27:53.018Z,16.03
2019-02-23T10:30:21.302Z,15.17
2019-02-23T10:32:49.605Z,16.07
2019-02-23T10:35:17.871Z,13.63
2019-02-23T10:37:46.468Z,14.77
2019-02-23T10:40:14.945Z,14.77
2019-02-23T10:42:43.234Z,14.63
2019-02-23T10:45:13.343Z,14.53
2019-02-23T10:47:41.749Z,14.77
2019-02-23T10:50:14.622Z,13.70
2019-02-23T10:52:42.895Z,14.33
2019-02-23T10:55:13.784Z,14.17
2019-02-23T10:57:42.084Z,14.43
2019-02-23T11:00:17.384Z,15.20
2019-02-23T11:02:45.754Z,15.40
2019-02-23T11:05:14.097Z,12.90
2019-02-23T11:07:42.428Z,13.27
2019-02-23T11:10:11.171Z,12.90
2019-02-23T11:12:39.619Z,13.93
2019-02-23T11:15:11.213Z,12.13
2019-02-23T11:17:39.505Z,14.27
2019-02-23T11:20:09.916Z,13.50
2019-02-23T11:22:38.212Z,13.40
2019-02-23T11:25:09.254Z,12.70
2019-02-23T11:27:37.650Z,17.03
2019-02-23T11:30:09.259Z,11.50
2019-02-23T11:32:37.607Z,12.53
2019-02-23T11:35:07.943Z,12.80
2019-02-23T11:37:36.254Z,12.10
2019-02-23T11:40:06.884Z,12.43
2019-02-23T11:42:35.184Z,11.97
2019-02-23T11:45:03.564Z,13.53
2019-02-23T11:47:31.872Z,11.57
2019-02-23T11:50:00.406Z,12.27
2019-02-23T11:52:28.843Z,12.30
2019-02-23T11:54:57.113Z,12.07
2019-02-23T11:57:25.419Z,12.63
2019-02-23T11:59:53.700Z,11.07
2019-02-23T12:02:21.979Z,12.53
2019-02-23T12:04:50.258Z,12.13
2019-02-23T12:07:18.545Z,11.67
2019-02-23T12:09:46.848Z,10.70
2019-02-23T12:12:15.142Z,11.70
2019-02-23T12:14:43.441Z,10.03
2019-02-23T12:17:11.741Z,10.50
2019-02-23T12:19:40.034Z,9.40
2019-02-23T12:22:12.381Z,10.43
2019-02-23T12:24:38.345Z,9.77
2019-02-23T12:27:06.626Z,10.57
2019-02-23T12:29:34.934Z,10.10
2019-02-23T12:32:03.219Z,9.90
2019-02-23T12:34:31.475Z,9.43
2019-02-23T12:36:59.761Z,9.90
2019-02-23T12:39:28.037Z,10.17
2019-02-23T12:41:56.309Z,9.73
2019-02-23T12:44:24.593Z,10.37
2019-02-23T12:46:52.950Z,10.57
2019-02-23T12:49:21.241Z,9.13
2019-02-23T12:51:49.537Z,9.80
2019-02-23T12:54:17.822Z,9.77
2019-02-23T12:56:46.092Z,9.50
2019-02-23T12:59:14.380Z,11.03
2019-02-23T13:01:42.669Z,11.10
2019-02-23T13:04:10.931Z,9.97
2019-02-23T13:06:39.195Z,9.90
2019-02-23T13:09:22.453Z,9.67
2019-02-23T13:12:10.489Z,10.10
2019-02-23T13:14:44.392Z,10.67
2019-02-23T13:17:15.876Z,10.70
2019-02-23T13:20:12.975Z,10.47
2019-02-23T13:22:50.408Z,11.10
2019-02-23T13:25:36.856Z,10.70
2019-02-23T13:28:41.590Z,11.03
2019-02-23T13:31:24.805Z,11.13
2019-02-23T13:34:08.137Z,10.40
2019-02-23T13:36:51.722Z,10.60
2019-02-23T13:39:44.628Z,10.43
2019-02-23T13:42:31.264Z,10.80
2019-02-23T13:45:08.507Z,11.30
2019-02-23T13:47:58.212Z,10.87
2019-02-23T13:50:38.372Z,10.87
2019-02-23T13:53:15.887Z,10.77
2019-02-23T13:56:02.451Z,10.43
2019-02-23T13:58:36.489Z,10.27
2019-02-23T14:01:07.975Z,10.33
2019-02-23T14:04:00.188Z,10.73
2019-02-23T14:06:55.689Z,9.80
2019-02-23T14:09:52.729Z,9.60
2019-02-23T14:12:40.960Z,9.90
2019-02-23T14:15:29.166Z,10.37
2019-02-23T14:18:21.543Z,10.90
2019-02-23T14:21:11.041Z,10.33
2019-02-23T14:23:45.592Z,10.50
2019-02-23T14:26:42.704Z,10.80
2019-02-23T14:29:34.643Z,9.50
2019-02-23T14:32:08.967Z,10.40
2019-02-23T14:34:48.983Z,9.63
2019-02-23T14:37:44.869Z,10.23
2019-02-23T14:40:33.672Z,10.33
2019-02-23T14:43:12.055Z,10.40
2019-02-23T14:45:55.350Z,11.33
2019-02-23T14:48:46.170Z,10.57
2019-02-23T14:51:17.621Z,9.33
2019-02-23T14:54:00.555Z,10.87
2019-02-23T14:56:56.201Z,10.07
2019-02-23T14:59:42.830Z,9.43
2019-02-23T15:02:38.629Z,9.00
2019-02-23T15:05:24.842Z,10.43
2019-02-23T15:08:12.731Z,8.40
2019-02-23T15:10:59.220Z,9.50
2019-02-23T15:13:39.537Z,9.37
2019-02-23T15:16:20.125Z,9.77
2019-02-23T15:19:23.362Z,9.30
2019-02-23T15:21:54.791Z,9.13
2019-02-23T15:24:28.857Z,9.57
2019-02-23T15:27:06.148Z,9.20
2019-02-23T15:29:46.858Z,10.13
2019-02-23T15:32:30.457Z,9.17
2019-02-23T15:35:24.558Z,9.73
2019-02-23T15:38:12.789Z,8.80
2019-02-23T15:41:02.500Z,10.03
2019-02-23T15:44:07.388Z,8.70
2019-02-23T15:46:53.918Z,9.27
2019-02-23T15:49:34.394Z,10.53
2019-02-23T15:52:03.650Z,11.37
2019-02-23T15:54:38.726Z,10.87
2019-02-23T15:57:13.410Z,10.83
2019-02-23T15:59:44.497Z,11.27
2019-02-23T16:02:13.038Z,11.57
2019-02-23T16:04:41.310Z,10.57
2019-02-23T16:07:09.592Z,11.63
2019-02-23T16:09:37.865Z,13.87
2019-02-23T16:12:06.161Z,11.33
2019-02-23T16:14:34.484Z,10.70
2019-02-23T16:17:02.706Z,10.37
2019-02-23T16:19:30.991Z,10.77
2019-02-23T16:21:59.325Z,20.13
2019-02-23T16:24:27.613Z,12.37
2019-02-23T16:26:55.873Z,10.73
2019-02-23T16:29:24.158Z,11.13
2019-02-23T16:31:52.494Z,10.87
2019-02-23T16:34:21.914Z,10.83
2019-02-23T16:36:50.210Z,11.27
2019-02-23T16:39:18.472Z,12.43
2019-02-23T16:41:46.747Z,11.40
2019-02-23T16:44:15.099Z,11.30
2019-02-23T16:46:46.277Z,11.80
2019-02-23T16:49:15.946Z,11.50
2019-02-23T16:51:44.290Z,11.73
2019-02-23T16:54:13.277Z,12.07
2019-02-23T16:56:41.556Z,11.90
2019-02-23T16:59:09.977Z,12.27
2019-02-23T17:01:38.238Z,11.80
2019-02-23T17:04:06.728Z,11.93
2019-02-23T17:06:35.014Z,11.30
2019-02-23T17:09:03.864Z,11.80
2019-02-23T17:11:32.165Z,13.00
2019-02-23T17:14:00.624Z,11.70
2019-02-23T17:16:29.224Z,12.03
2019-02-23T17:18:57.518Z,11.60
2019-02-23T17:21:25.799Z,11.57
2019-02-23T17:23:54.073Z,17.00
2019-02-23T17:26:22.365Z,16.33
2019-02-23T17:28:50.652Z,18.67
2019-02-23T17:31:18.946Z,19.10
2019-02-23T17:33:48.122Z,44.53
2019-02-23T17:36:16.422Z,16.93
2019-02-23T17:38:44.962Z,13.70
2019-02-23T17:41:13.387Z,18.80
2019-02-23T17:43:41.891Z,12.87
2019-02-23T17:46:10.102Z,13.40
2019-02-23T17:48:38.409Z,14.27
2019-02-23T17:51:06.678Z,13.13
2019-02-23T17:53:34.968Z,13.80
2019-02-23T17:56:03.281Z,12.23
2019-02-23T17:58:31.566Z,11.17
2019-02-23T18:00:59.965Z,12.73
2019-02-23T18:03:28.399Z,12.10
2019-02-23T18:05:56.688Z,14.63
2019-02-23T18:08:24.998Z,13.40
2019-02-23T18:10:53.309Z,13.97
2019-02-23T18:13:21.619Z,13.97
2019-02-23T18:15:49.912Z,14.83
2019-02-23T18:18:18.186Z,14.20
2019-02-23T18:20:48.234Z,17.23
2019-02-23T18:23:16.808Z,25.10
2019-02-23T18:25:45.307Z,22.30
2019-02-23T18:28:13.608Z,16.13
2019-02-23T18:30:41.877Z,15.27
2019-02-23T18:33:10.206Z,14.10
2019-02-23T18:35:38.491Z,19.13
2019-02-23T18:38:06.774Z,16.30
2019-02-23T18:40:35.067Z,15.93
2019-02-23T18:43:03.354Z,16.93
2019-02-23T18:45:31.634Z,13.30
2019-02-23T18:47:59.918Z,14.20
2019-02-23T18:50:28.190Z,13.67
2019-02-23T18:52:56.482Z,14.83
2019-02-23T18:55:24.762Z,13.90
2019-02-23T18:57:53.044Z,13.93
2019-02-23T19:00:24.337Z,13.63
2019-02-23T19:02:51.375Z,13.50
2019-02-23T19:05:19.674Z,44.37
2019-02-23T19:07:47.936Z,13.60
2019-02-23T19:10:16.222Z,14.20
2019-02-23T19:12:44.578Z,13.97
2019-02-23T19:15:15.895Z,14.53
2019-02-23T19:17:44.175Z,13.53
2019-02-23T19:20:14.217Z,15.20
2019-02-23T19:22:42.519Z,14.30
2019-02-23T19:25:11.473Z,14.07
2019-02-23T19:27:39.906Z,14.90
2019-02-23T19:30:11.583Z,12.43
2019-02-23T19:32:39.893Z,13.80
2019-02-23T19:35:08.557Z,13.47
2019-02-23T19:37:36.829Z,15.10
2019-02-23T19:40:07.562Z,14.40
2019-02-23T19:42:35.824Z,14.40
2019-02-23T19:45:06.330Z,15.00
2019-02-23T19:47:34.632Z,15.27
2019-02-23T19:50:04.768Z,13.20
2019-02-23T19:52:33.054Z,13.60
2019-02-23T19:55:01.414Z,15.23
2019-02-23T19:57:29.778Z,12.77
2019-02-23T19:59:58.042Z,12.00
2019-02-23T20:02:26.345Z,14.07
2019-02-23T20:04:54.623Z,13.10
2019-02-23T20:07:22.914Z,13.40
2019-02-23T20:09:51.186Z,12.30
2019-02-23T20:12:19.479Z,13.17
2019-02-23T20:14:47.746Z,12.13
2019-02-23T20:17:16.017Z,12.87
2019-02-23T20:19:44.330Z,14.43
2019-02-23T20:22:12.621Z,13.07
2019-02-23T20:24:40.922Z,14.53
2019-02-23T20:27:09.204Z,14.20
2019-02-23T20:29:37.491Z,13.10
2019-02-23T20:32:05.766Z,16.07
2019-02-23T20:34:34.055Z,16.57
2019-02-23T20:37:02.342Z,14.77
2019-02-23T20:39:30.615Z,14.00
2019-02-23T20:41:58.922Z,13.60
2019-02-23T20:44:27.201Z,13.80
2019-02-23T20:46:55.633Z,15.10
2019-02-23T20:49:23.934Z,16.53
2019-02-23T20:51:52.224Z,16.97
2019-02-23T20:54:20.494Z,21.27
2019-02-23T20:56:48.761Z,15.13
2019-02-23T20:59:17.058Z,14.00
2019-02-23T21:01:45.334Z,14.87
2019-02-23T21:04:13.611Z,15.40
2019-02-23T21:06:41.936Z,14.83
2019-02-23T21:09:10.318Z,15.80
2019-02-23T21:11:38.607Z,15.10
2019-02-23T21:14:06.902Z,13.90
2019-02-23T21:16:35.179Z,15.27
2019-02-23T21:19:03.454Z,16.63
2019-02-23T21:21:31.737Z,22.40
2019-02-23T21:24:00.011Z,19.13
2019-02-23T21:26:28.302Z,18.97
2019-02-23T21:28:56.569Z,18.73
2019-02-23T21:31:24.851Z,17.40
2019-02-23T21:33:53.146Z,19.93
2019-02-23T21:36:21.432Z,19.03
2019-02-23T21:38:49.740Z,20.50
2019-02-23T21:41:18.194Z,18.90
2019-02-23T21:43:46.457Z,15.10
2019-02-23T21:46:14.894Z,15.13
2019-02-23T21:48:43.256Z,13.80
2019-02-23T21:51:11.501Z,13.80
2019-02-23T21:53:39.790Z,15.13
2019-02-23T21:56:08.517Z,14.60
2019-02-23T21:58:37.230Z,13.93
2019-02-23T22:01:07.155Z,15.20
2019-02-23T22:03:37.246Z,16.13
2019-02-23T22:06:05.581Z,17.67
2019-02-23T22:08:33.837Z,15.60
2019-02-23T22:11:02.217Z,15.47
2019-02-23T22:13:30.492Z,17.17
2019-02-23T22:15:58.801Z,15.53
2019-02-23T22:18:27.097Z,15.80
2019-02-23T22:20:55.387Z,16.17
2019-02-23T22:23:23.709Z,16.03
2019-02-23T22:25:52.078Z,15.77
2019-02-23T22:28:20.370Z,14.67
2019-02-23T22:30:48.727Z,15.93
2019-02-23T22:33:17.038Z,15.20
2019-02-23T22:35:45.348Z,15.67
2019-02-23T22:38:13.655Z,13.30
2019-02-23T22:40:41.909Z,14.43
2019-02-23T22:43:10.230Z,19.07
2019-02-23T22:45:38.508Z,16.63
2019-02-23T22:48:06.789Z,14.23
2019-02-23T22:50:35.844Z,13.43
2019-02-23T22:53:06.596Z,14.60
2019-02-23T22:55:34.863Z,14.27
2019-02-23T22:58:03.146Z,15.03
2019-02-23T23:00:49.627Z,13.87
2019-02-23T23:03:18.112Z,15.13
2019-02-23T23:05:46.377Z,14.20
2019-02-23T23:08:14.645Z,12.30
2019-02-23T23:10:42.961Z,13.00
2019-02-23T23:13:11.278Z,26.53
2019-02-23T23:15:39.639Z,13.80
2019-02-23T23:18:08.016Z,13.87
2019-02-23T23:20:36.311Z,13.57
2019-02-23T23:23:04.652Z,13.20
2019-02-23T23:25:32.921Z,13.90
2019-02-23T23:28:01.219Z,13.17
2019-02-23T23:30:29.511Z,12.70
2019-02-23T23:32:57.885Z,12.90
2019-02-23T23:35:26.153Z,14.53
2019-02-23T23:37:54.455Z,12.70
2019-02-23T23:40:22.847Z,12.17
2019-02-23T23:42:57.951Z,11.93
2019-02-23T23:45:21.115Z,13.37
2019-02-23T23:47:49.497Z,12.60
2019-02-23T23:50:17.840Z,13.33
2019-02-23T23:52:46.112Z,13.33
2019-02-23T23:55:14.388Z,13.30
2019-02-23T23:57:42.685Z,14.27
